sensor_id;sensor_type;location;lat;lon;timestamp;P1;durP1;ratioP1;P2;durP2;ratioP2
19854;SDS011;10088;47.946;2.532;2023-02-03T00:00:05;7.53;;;3.03;;
19854;SDS011;10088;47.946;2.532;2023-02-03T00:02:31;6.73;;;2.67;;
19854;SDS011;10088;47.946;2.532;2023-02-03T00:04:57;9.93;;;3.20;;
19854;SDS011;10088;47.946;2.532;2023-02-03T00:07:22;5.70;;;3.20;;
19854;SDS011;10088;47.946;2.532;2023-02-03T00:09:47;7.17;;;3.63;;
19854;SDS011;10088;47.946;2.532;2023-02-03T00:12:13;5.97;;;3.07;;
19854;SDS011;10088;47.946;2.532;2023-02-03T00:14:38;4.90;;;2.40;;
19854;SDS011;10088;47.946;2.532;2023-02-03T00:17:04;5.80;;;2.80;;
19854;SDS011;10088;47.946;2.532;2023-02-03T00:19:29;8.30;;;3.20;;
19854;SDS011;10088;47.946;2.532;2023-02-03T00:21:54;8.07;;;2.60;;
19854;SDS011;10088;47.946;2.532;2023-02-03T00:24:20;5.23;;;2.67;;
19854;SDS011;10088;47.946;2.532;2023-02-03T00:26:49;9.10;;;3.27;;
19854;SDS011;10088;47.946;2.532;2023-02-03T00:29:14;3.20;;;2.33;;
19854;SDS011;10088;47.946;2.532;2023-02-03T00:31:39;7.07;;;2.87;;
19854;SDS011;10088;47.946;2.532;2023-02-03T00:34:05;5.70;;;3.13;;
19854;SDS011;10088;47.946;2.532;2023-02-03T00:36:30;8.27;;;2.70;;
19854;SDS011;10088;47.946;2.532;2023-02-03T00:38:56;4.87;;;2.70;;
19854;SDS011;10088;47.946;2.532;2023-02-03T00:41:21;4.50;;;2.70;;
19854;SDS011;10088;47.946;2.532;2023-02-03T00:43:47;9.90;;;3.10;;
19854;SDS011;10088;47.946;2.532;2023-02-03T00:46:12;6.13;;;2.73;;
19854;SDS011;10088;47.946;2.532;2023-02-03T00:48:38;6.00;;;2.80;;
19854;SDS011;10088;47.946;2.532;2023-02-03T00:51:03;8.13;;;3.00;;
19854;SDS011;10088;47.946;2.532;2023-02-03T00:53:29;6.67;;;3.13;;
19854;SDS011;10088;47.946;2.532;2023-02-03T00:55:54;10.10;;;2.80;;
19854;SDS011;10088;47.946;2.532;2023-02-03T00:58:20;6.63;;;2.80;;
19854;SDS011;10088;47.946;2.532;2023-02-03T01:00:45;5.10;;;2.60;;
19854;SDS011;10088;47.946;2.532;2023-02-03T01:03:10;6.80;;;3.07;;
19854;SDS011;10088;47.946;2.532;2023-02-03T01:05:36;5.03;;;3.13;;
19854;SDS011;10088;47.946;2.532;2023-02-03T01:08:01;7.47;;;2.67;;
19854;SDS011;10088;47.946;2.532;2023-02-03T01:10:27;3.77;;;2.53;;
19854;SDS011;10088;47.946;2.532;2023-02-03T01:12:52;5.83;;;2.83;;
19854;SDS011;10088;47.946;2.532;2023-02-03T01:15:17;6.00;;;2.60;;
19854;SDS011;10088;47.946;2.532;2023-02-03T01:17:43;5.90;;;2.80;;
19854;SDS011;10088;47.946;2.532;2023-02-03T01:20:08;5.90;;;3.00;;
19854;SDS011;10088;47.946;2.532;2023-02-03T01:22:36;6.60;;;2.60;;
19854;SDS011;10088;47.946;2.532;2023-02-03T01:25:01;5.83;;;2.20;;
19854;SDS011;10088;47.946;2.532;2023-02-03T01:27:27;3.70;;;2.40;;
19854;SDS011;10088;47.946;2.532;2023-02-03T01:29:52;6.00;;;2.70;;
19854;SDS011;10088;47.946;2.532;2023-02-03T01:32:17;5.33;;;2.50;;
19854;SDS011;10088;47.946;2.532;2023-02-03T01:34:43;4.77;;;2.10;;
19854;SDS011;10088;47.946;2.532;2023-02-03T01:37:08;6.57;;;2.80;;
19854;SDS011;10088;47.946;2.532;2023-02-03T01:39:33;5.43;;;2.70;;
19854;SDS011;10088;47.946;2.532;2023-02-03T01:41:58;6.50;;;2.40;;
19854;SDS011;10088;47.946;2.532;2023-02-03T01:44:44;11.00;;;2.93;;
19854;SDS011;10088;47.946;2.532;2023-02-03T01:47:12;5.27;;;3.00;;
19854;SDS011;10088;47.946;2.532;2023-02-03T01:49:40;4.47;;;2.30;;
19854;SDS011;10088;47.946;2.532;2023-02-03T01:52:06;6.83;;;2.40;;
19854;SDS011;10088;47.946;2.532;2023-02-03T01:54:32;6.63;;;2.40;;
19854;SDS011;10088;47.946;2.532;2023-02-03T01:57:09;6.23;;;2.10;;
19854;SDS011;10088;47.946;2.532;2023-02-03T01:59:35;7.90;;;2.60;;
19854;SDS011;10088;47.946;2.532;2023-02-03T02:02:01;12.50;;;2.77;;
19854;SDS011;10088;47.946;2.532;2023-02-03T02:04:30;5.10;;;2.13;;
19854;SDS011;10088;47.946;2.532;2023-02-03T02:07:00;6.90;;;2.70;;
19854;SDS011;10088;47.946;2.532;2023-02-03T02:09:26;3.50;;;1.93;;
19854;SDS011;10088;47.946;2.532;2023-02-03T02:11:51;5.20;;;2.40;;
19854;SDS011;10088;47.946;2.532;2023-02-03T02:14:17;3.77;;;2.17;;
19854;SDS011;10088;47.946;2.532;2023-02-03T02:34:08;5.93;;;2.40;;
19854;SDS011;10088;47.946;2.532;2023-02-03T02:39:22;6.17;;;2.63;;
19854;SDS011;10088;47.946;2.532;2023-02-03T02:41:56;5.37;;;2.20;;
19854;SDS011;10088;47.946;2.532;2023-02-03T02:44:24;6.20;;;2.00;;
19854;SDS011;10088;47.946;2.532;2023-02-03T02:46:54;5.00;;;2.47;;
19854;SDS011;10088;47.946;2.532;2023-02-03T02:49:24;2.87;;;2.00;;
19854;SDS011;10088;47.946;2.532;2023-02-03T02:51:51;5.67;;;2.33;;
19854;SDS011;10088;47.946;2.532;2023-02-03T02:54:18;4.80;;;2.27;;
19854;SDS011;10088;47.946;2.532;2023-02-03T02:56:47;4.13;;;2.33;;
19854;SDS011;10088;47.946;2.532;2023-02-03T02:59:13;5.03;;;2.17;;
19854;SDS011;10088;47.946;2.532;2023-02-03T03:01:39;8.60;;;2.93;;
19854;SDS011;10088;47.946;2.532;2023-02-03T03:04:05;4.53;;;2.17;;
19854;SDS011;10088;47.946;2.532;2023-02-03T03:09:05;4.20;;;1.70;;
19854;SDS011;10088;47.946;2.532;2023-02-03T03:11:32;3.77;;;1.80;;
19854;SDS011;10088;47.946;2.532;2023-02-03T03:14:00;5.70;;;2.30;;
19854;SDS011;10088;47.946;2.532;2023-02-03T03:16:27;5.17;;;2.00;;
19854;SDS011;10088;47.946;2.532;2023-02-03T03:19:04;4.63;;;2.00;;
19854;SDS011;10088;47.946;2.532;2023-02-03T03:21:32;5.23;;;2.33;;
19854;SDS011;10088;47.946;2.532;2023-02-03T03:24:00;3.93;;;1.90;;
19854;SDS011;10088;47.946;2.532;2023-02-03T03:31:47;5.23;;;2.30;;
19854;SDS011;10088;47.946;2.532;2023-02-03T03:34:12;4.87;;;2.27;;
19854;SDS011;10088;47.946;2.532;2023-02-03T03:36:43;3.70;;;1.60;;
19854;SDS011;10088;47.946;2.532;2023-02-03T03:41:40;6.93;;;2.10;;
19854;SDS011;10088;47.946;2.532;2023-02-03T03:44:08;3.73;;;1.60;;
19854;SDS011;10088;47.946;2.532;2023-02-03T03:47:18;4.40;;;1.83;;
19854;SDS011;10088;47.946;2.532;2023-02-03T03:49:23;4.83;;;1.73;;
19854;SDS011;10088;47.946;2.532;2023-02-03T03:51:56;2.70;;;1.70;;
19854;SDS011;10088;47.946;2.532;2023-02-03T03:54:22;3.50;;;1.73;;
19854;SDS011;10088;47.946;2.532;2023-02-03T03:56:56;2.77;;;1.87;;
19854;SDS011;10088;47.946;2.532;2023-02-03T03:59:23;3.40;;;2.00;;
19854;SDS011;10088;47.946;2.532;2023-02-03T04:01:49;2.33;;;1.40;;
19854;SDS011;10088;47.946;2.532;2023-02-03T04:04:15;3.67;;;1.40;;
19854;SDS011;10088;47.946;2.532;2023-02-03T04:06:40;4.10;;;1.60;;
19854;SDS011;10088;47.946;2.532;2023-02-03T04:09:06;3.40;;;1.90;;
19854;SDS011;10088;47.946;2.532;2023-02-03T04:11:31;5.47;;;1.70;;
19854;SDS011;10088;47.946;2.532;2023-02-03T04:14:15;4.47;;;1.70;;
19854;SDS011;10088;47.946;2.532;2023-02-03T04:16:40;4.10;;;1.70;;
19854;SDS011;10088;47.946;2.532;2023-02-03T04:19:05;3.90;;;1.77;;
19854;SDS011;10088;47.946;2.532;2023-02-03T04:21:31;5.53;;;1.80;;
19854;SDS011;10088;47.946;2.532;2023-02-03T04:23:56;4.27;;;1.63;;
19854;SDS011;10088;47.946;2.532;2023-02-03T04:26:21;3.43;;;1.67;;
19854;SDS011;10088;47.946;2.532;2023-02-03T04:28:47;6.37;;;2.00;;
19854;SDS011;10088;47.946;2.532;2023-02-03T04:31:12;1.43;;;1.10;;
19854;SDS011;10088;47.946;2.532;2023-02-03T04:33:37;3.23;;;1.50;;
19854;SDS011;10088;47.946;2.532;2023-02-03T04:36:03;4.60;;;2.40;;
19854;SDS011;10088;47.946;2.532;2023-02-03T04:38:28;2.10;;;1.33;;
19854;SDS011;10088;47.946;2.532;2023-02-03T04:40:53;5.67;;;1.50;;
19854;SDS011;10088;47.946;2.532;2023-02-03T04:43:19;4.40;;;1.90;;
19854;SDS011;10088;47.946;2.532;2023-02-03T04:45:44;4.20;;;2.27;;
19854;SDS011;10088;47.946;2.532;2023-02-03T04:48:09;3.90;;;1.53;;
19854;SDS011;10088;47.946;2.532;2023-02-03T04:50:34;3.70;;;1.60;;
19854;SDS011;10088;47.946;2.532;2023-02-03T04:53:00;4.07;;;1.70;;
19854;SDS011;10088;47.946;2.532;2023-02-03T04:55:26;1.70;;;1.40;;
19854;SDS011;10088;47.946;2.532;2023-02-03T04:57:55;3.27;;;1.50;;
19854;SDS011;10088;47.946;2.532;2023-02-03T05:00:20;5.33;;;1.80;;
19854;SDS011;10088;47.946;2.532;2023-02-03T05:02:45;5.87;;;2.00;;
19854;SDS011;10088;47.946;2.532;2023-02-03T05:05:11;4.23;;;1.50;;
19854;SDS011;10088;47.946;2.532;2023-02-03T05:07:36;4.40;;;1.63;;
19854;SDS011;10088;47.946;2.532;2023-02-03T05:10:01;3.60;;;1.53;;
19854;SDS011;10088;47.946;2.532;2023-02-03T05:12:27;4.40;;;1.80;;
19854;SDS011;10088;47.946;2.532;2023-02-03T05:14:52;3.33;;;1.57;;
19854;SDS011;10088;47.946;2.532;2023-02-03T05:17:17;2.80;;;1.70;;
19854;SDS011;10088;47.946;2.532;2023-02-03T05:19:42;4.60;;;1.90;;
19854;SDS011;10088;47.946;2.532;2023-02-03T05:22:08;3.20;;;1.43;;
19854;SDS011;10088;47.946;2.532;2023-02-03T05:24:33;5.23;;;1.73;;
19854;SDS011;10088;47.946;2.532;2023-02-03T05:26:58;4.60;;;1.50;;
19854;SDS011;10088;47.946;2.532;2023-02-03T05:29:24;1.83;;;1.40;;
19854;SDS011;10088;47.946;2.532;2023-02-03T05:31:49;2.50;;;1.43;;
19854;SDS011;10088;47.946;2.532;2023-02-03T05:34:14;5.33;;;1.60;;
19854;SDS011;10088;47.946;2.532;2023-02-03T05:36:40;4.30;;;1.63;;
19854;SDS011;10088;47.946;2.532;2023-02-03T05:39:05;3.20;;;1.37;;
19854;SDS011;10088;47.946;2.532;2023-02-03T05:41:30;2.63;;;1.40;;
19854;SDS011;10088;47.946;2.532;2023-02-03T05:44:14;3.53;;;1.60;;
19854;SDS011;10088;47.946;2.532;2023-02-03T05:46:39;2.60;;;1.13;;
19854;SDS011;10088;47.946;2.532;2023-02-03T05:49:05;2.77;;;1.40;;
19854;SDS011;10088;47.946;2.532;2023-02-03T05:51:30;4.27;;;1.50;;
19854;SDS011;10088;47.946;2.532;2023-02-03T05:53:55;3.27;;;1.47;;
19854;SDS011;10088;47.946;2.532;2023-02-03T05:56:21;2.87;;;1.57;;
19854;SDS011;10088;47.946;2.532;2023-02-03T05:58:46;2.43;;;1.40;;
19854;SDS011;10088;47.946;2.532;2023-02-03T06:01:11;5.87;;;1.30;;
19854;SDS011;10088;47.946;2.532;2023-02-03T06:03:37;3.87;;;1.70;;
19854;SDS011;10088;47.946;2.532;2023-02-03T06:06:02;3.93;;;1.63;;
19854;SDS011;10088;47.946;2.532;2023-02-03T06:08:27;6.10;;;1.70;;
19854;SDS011;10088;47.946;2.532;2023-02-03T06:10:57;2.47;;;1.53;;
19854;SDS011;10088;47.946;2.532;2023-02-03T06:13:22;2.00;;;1.63;;
19854;SDS011;10088;47.946;2.532;2023-02-03T06:15:48;3.17;;;1.37;;
19854;SDS011;10088;47.946;2.532;2023-02-03T06:18:14;5.27;;;1.90;;
19854;SDS011;10088;47.946;2.532;2023-02-03T06:20:39;4.93;;;1.60;;
19854;SDS011;10088;47.946;2.532;2023-02-03T06:23:04;4.53;;;2.17;;
19854;SDS011;10088;47.946;2.532;2023-02-03T06:25:29;3.67;;;1.80;;
19854;SDS011;10088;47.946;2.532;2023-02-03T06:27:56;4.27;;;1.87;;
19854;SDS011;10088;47.946;2.532;2023-02-03T06:30:22;6.67;;;1.80;;
19854;SDS011;10088;47.946;2.532;2023-02-03T06:32:48;5.87;;;1.73;;
19854;SDS011;10088;47.946;2.532;2023-02-03T06:35:13;5.13;;;1.57;;
19854;SDS011;10088;47.946;2.532;2023-02-03T06:37:38;4.27;;;1.70;;
19854;SDS011;10088;47.946;2.532;2023-02-03T06:40:04;3.87;;;2.43;;
19854;SDS011;10088;47.946;2.532;2023-02-03T06:42:29;2.93;;;1.43;;
19854;SDS011;10088;47.946;2.532;2023-02-03T06:44:55;3.93;;;1.53;;
19854;SDS011;10088;47.946;2.532;2023-02-03T06:47:20;3.33;;;1.50;;
19854;SDS011;10088;47.946;2.532;2023-02-03T06:49:45;4.07;;;1.50;;
19854;SDS011;10088;47.946;2.532;2023-02-03T06:52:10;2.73;;;1.50;;
19854;SDS011;10088;47.946;2.532;2023-02-03T06:54:36;4.03;;;1.80;;
19854;SDS011;10088;47.946;2.532;2023-02-03T06:57:01;4.70;;;1.80;;
19854;SDS011;10088;47.946;2.532;2023-02-03T06:59:27;3.87;;;1.93;;
19854;SDS011;10088;47.946;2.532;2023-02-03T07:01:52;3.73;;;1.50;;
19854;SDS011;10088;47.946;2.532;2023-02-03T07:04:19;2.90;;;1.33;;
19854;SDS011;10088;47.946;2.532;2023-02-03T07:06:44;3.40;;;1.67;;
19854;SDS011;10088;47.946;2.532;2023-02-03T07:09:09;3.17;;;1.97;;
19854;SDS011;10088;47.946;2.532;2023-02-03T07:11:35;3.73;;;2.00;;
19854;SDS011;10088;47.946;2.532;2023-02-03T07:14:00;5.70;;;1.60;;
19854;SDS011;10088;47.946;2.532;2023-02-03T07:16:26;3.10;;;1.90;;
19854;SDS011;10088;47.946;2.532;2023-02-03T07:18:51;4.23;;;1.70;;
19854;SDS011;10088;47.946;2.532;2023-02-03T07:21:17;5.10;;;1.97;;
19854;SDS011;10088;47.946;2.532;2023-02-03T07:23:45;6.23;;;2.10;;
19854;SDS011;10088;47.946;2.532;2023-02-03T07:26:10;4.33;;;1.80;;
19854;SDS011;10088;47.946;2.532;2023-02-03T07:28:35;3.23;;;1.43;;
19854;SDS011;10088;47.946;2.532;2023-02-03T07:31:01;4.67;;;1.57;;
19854;SDS011;10088;47.946;2.532;2023-02-03T07:33:28;5.33;;;1.80;;
19854;SDS011;10088;47.946;2.532;2023-02-03T07:35:54;8.27;;;2.03;;
19854;SDS011;10088;47.946;2.532;2023-02-03T07:38:20;3.77;;;1.80;;
19854;SDS011;10088;47.946;2.532;2023-02-03T07:40:45;6.27;;;2.00;;
19854;SDS011;10088;47.946;2.532;2023-02-03T07:43:11;2.47;;;1.57;;
19854;SDS011;10088;47.946;2.532;2023-02-03T07:45:36;2.80;;;1.60;;
19854;SDS011;10088;47.946;2.532;2023-02-03T07:48:01;4.07;;;1.87;;
19854;SDS011;10088;47.946;2.532;2023-02-03T07:50:27;4.63;;;1.67;;
19854;SDS011;10088;47.946;2.532;2023-02-03T07:52:52;6.17;;;1.60;;
19854;SDS011;10088;47.946;2.532;2023-02-03T07:55:17;3.30;;;1.87;;
19854;SDS011;10088;47.946;2.532;2023-02-03T07:57:43;5.60;;;1.90;;
19854;SDS011;10088;47.946;2.532;2023-02-03T08:00:12;3.03;;;1.73;;
19854;SDS011;10088;47.946;2.532;2023-02-03T08:02:38;2.47;;;1.80;;
19854;SDS011;10088;47.946;2.532;2023-02-03T08:05:04;6.07;;;1.50;;
19854;SDS011;10088;47.946;2.532;2023-02-03T08:07:29;3.80;;;1.70;;
19854;SDS011;10088;47.946;2.532;2023-02-03T08:09:55;6.53;;;2.50;;
19854;SDS011;10088;47.946;2.532;2023-02-03T08:12:20;3.33;;;1.70;;
19854;SDS011;10088;47.946;2.532;2023-02-03T08:14:45;5.10;;;1.87;;
19854;SDS011;10088;47.946;2.532;2023-02-03T08:17:11;2.23;;;1.30;;
19854;SDS011;10088;47.946;2.532;2023-02-03T08:19:36;3.40;;;1.67;;
19854;SDS011;10088;47.946;2.532;2023-02-03T08:22:01;5.27;;;2.37;;
19854;SDS011;10088;47.946;2.532;2023-02-03T08:24:26;2.10;;;1.43;;
19854;SDS011;10088;47.946;2.532;2023-02-03T08:26:52;3.47;;;1.57;;
19854;SDS011;10088;47.946;2.532;2023-02-03T08:29:18;4.53;;;2.10;;
19854;SDS011;10088;47.946;2.532;2023-02-03T08:31:43;4.97;;;1.80;;
19854;SDS011;10088;47.946;2.532;2023-02-03T08:34:09;4.83;;;1.70;;
19854;SDS011;10088;47.946;2.532;2023-02-03T08:36:34;5.43;;;1.97;;
19854;SDS011;10088;47.946;2.532;2023-02-03T08:39:03;3.03;;;1.67;;
19854;SDS011;10088;47.946;2.532;2023-02-03T08:41:28;5.73;;;2.07;;
19854;SDS011;10088;47.946;2.532;2023-02-03T08:43:53;2.70;;;1.40;;
19854;SDS011;10088;47.946;2.532;2023-02-03T08:46:19;4.70;;;2.00;;
19854;SDS011;10088;47.946;2.532;2023-02-03T08:48:45;3.23;;;1.70;;
19854;SDS011;10088;47.946;2.532;2023-02-03T08:51:11;3.80;;;1.60;;
19854;SDS011;10088;47.946;2.532;2023-02-03T08:53:37;3.47;;;1.47;;
19854;SDS011;10088;47.946;2.532;2023-02-03T08:56:06;5.37;;;1.53;;
19854;SDS011;10088;47.946;2.532;2023-02-03T08:58:32;3.97;;;1.70;;
19854;SDS011;10088;47.946;2.532;2023-02-03T09:01:08;2.63;;;1.73;;
19854;SDS011;10088;47.946;2.532;2023-02-03T09:03:33;2.77;;;1.90;;
19854;SDS011;10088;47.946;2.532;2023-02-03T09:05:59;3.43;;;1.50;;
19854;SDS011;10088;47.946;2.532;2023-02-03T09:08:25;3.40;;;1.50;;
19854;SDS011;10088;47.946;2.532;2023-02-03T09:10:50;3.70;;;1.50;;
19854;SDS011;10088;47.946;2.532;2023-02-03T09:13:15;2.33;;;1.47;;
19854;SDS011;10088;47.946;2.532;2023-02-03T09:15:41;2.87;;;1.43;;
19854;SDS011;10088;47.946;2.532;2023-02-03T09:18:06;3.10;;;1.43;;
19854;SDS011;10088;47.946;2.532;2023-02-03T09:20:31;3.10;;;1.67;;
19854;SDS011;10088;47.946;2.532;2023-02-03T09:22:57;4.00;;;1.90;;
19854;SDS011;10088;47.946;2.532;2023-02-03T09:25:23;3.87;;;1.70;;
19854;SDS011;10088;47.946;2.532;2023-02-03T09:27:48;2.63;;;1.60;;
19854;SDS011;10088;47.946;2.532;2023-02-03T09:30:14;4.50;;;1.43;;
19854;SDS011;10088;47.946;2.532;2023-02-03T09:32:39;2.23;;;1.40;;
19854;SDS011;10088;47.946;2.532;2023-02-03T09:35:04;6.03;;;1.60;;
19854;SDS011;10088;47.946;2.532;2023-02-03T09:37:30;5.90;;;1.70;;
19854;SDS011;10088;47.946;2.532;2023-02-03T09:39:55;2.10;;;1.20;;
19854;SDS011;10088;47.946;2.532;2023-02-03T09:42:50;4.10;;;1.67;;
19854;SDS011;10088;47.946;2.532;2023-02-03T09:47:42;2.43;;;1.70;;
19854;SDS011;10088;47.946;2.532;2023-02-03T09:50:17;3.47;;;1.60;;
19854;SDS011;10088;47.946;2.532;2023-02-03T09:52:44;3.27;;;1.47;;
19854;SDS011;10088;47.946;2.532;2023-02-03T09:58:02;2.97;;;1.80;;
19854;SDS011;10088;47.946;2.532;2023-02-03T10:00:33;3.87;;;1.43;;
19854;SDS011;10088;47.946;2.532;2023-02-03T10:03:04;3.63;;;1.40;;
19854;SDS011;10088;47.946;2.532;2023-02-03T10:10:30;1.20;;;1.00;;
19854;SDS011;10088;47.946;2.532;2023-02-03T10:17:59;4.40;;;1.50;;
19854;SDS011;10088;47.946;2.532;2023-02-03T10:20:33;3.87;;;1.40;;
19854;SDS011;10088;47.946;2.532;2023-02-03T10:23:01;3.50;;;1.03;;
19854;SDS011;10088;47.946;2.532;2023-02-03T10:25:50;1.53;;;0.90;;
19854;SDS011;10088;47.946;2.532;2023-02-03T10:28:18;2.87;;;1.00;;
19854;SDS011;10088;47.946;2.532;2023-02-03T10:31:07;2.60;;;1.10;;
19854;SDS011;10088;47.946;2.532;2023-02-03T10:33:31;3.37;;;1.20;;
19854;SDS011;10088;47.946;2.532;2023-02-03T10:41:14;1.67;;;1.10;;
19854;SDS011;10088;47.946;2.532;2023-02-03T10:43:40;2.27;;;1.00;;
19854;SDS011;10088;47.946;2.532;2023-02-03T10:46:12;1.53;;;1.00;;
19854;SDS011;10088;47.946;2.532;2023-02-03T10:48:37;2.30;;;1.30;;
19854;SDS011;10088;47.946;2.532;2023-02-03T10:51:02;2.00;;;1.10;;
19854;SDS011;10088;47.946;2.532;2023-02-03T10:53:32;1.93;;;1.10;;
19854;SDS011;10088;47.946;2.532;2023-02-03T10:56:06;2.13;;;1.10;;
19854;SDS011;10088;47.946;2.532;2023-02-03T10:58:32;0.73;;;0.70;;
19854;SDS011;10088;47.946;2.532;2023-02-03T11:01:06;2.30;;;1.00;;
19854;SDS011;10088;47.946;2.532;2023-02-03T11:03:33;2.37;;;1.03;;
19854;SDS011;10088;47.946;2.532;2023-02-03T11:06:09;4.33;;;1.23;;
19854;SDS011;10088;47.946;2.532;2023-02-03T11:08:36;3.33;;;0.80;;
19854;SDS011;10088;47.946;2.532;2023-02-03T11:11:02;2.00;;;1.00;;
19854;SDS011;10088;47.946;2.532;2023-02-03T11:13:28;1.40;;;1.30;;
19854;SDS011;10088;47.946;2.532;2023-02-03T11:21:10;2.07;;;1.20;;
19854;SDS011;10088;47.946;2.532;2023-02-03T11:23:41;2.57;;;1.07;;
19854;SDS011;10088;47.946;2.532;2023-02-03T11:26:09;2.17;;;0.90;;
19854;SDS011;10088;47.946;2.532;2023-02-03T11:28:35;1.60;;;0.70;;
19854;SDS011;10088;47.946;2.532;2023-02-03T11:31:00;0.70;;;0.60;;
19854;SDS011;10088;47.946;2.532;2023-02-03T11:33:26;1.90;;;1.00;;
19854;SDS011;10088;47.946;2.532;2023-02-03T11:35:56;1.70;;;0.70;;
19854;SDS011;10088;47.946;2.532;2023-02-03T11:38:30;2.90;;;0.90;;
19854;SDS011;10088;47.946;2.532;2023-02-03T11:40:58;2.70;;;0.80;;
19854;SDS011;10088;47.946;2.532;2023-02-03T11:43:25;1.77;;;0.90;;
19854;SDS011;10088;47.946;2.532;2023-02-03T11:45:52;1.00;;;0.90;;
19854;SDS011;10088;47.946;2.532;2023-02-03T11:48:57;2.87;;;1.00;;
19854;SDS011;10088;47.946;2.532;2023-02-03T12:27:38;1.10;;;1.00;;
19854;SDS011;10088;47.946;2.532;2023-02-03T12:30:14;1.43;;;0.83;;
19854;SDS011;10088;47.946;2.532;2023-02-03T12:41:37;2.40;;;1.10;;
19854;SDS011;10088;47.946;2.532;2023-02-03T12:44:15;1.73;;;0.90;;
19854;SDS011;10088;47.946;2.532;2023-02-03T12:47:01;1.83;;;0.80;;
19854;SDS011;10088;47.946;2.532;2023-02-03T12:49:36;0.80;;;0.80;;
19854;SDS011;10088;47.946;2.532;2023-02-03T12:52:25;1.00;;;0.80;;
19854;SDS011;10088;47.946;2.532;2023-02-03T13:10:54;2.80;;;0.80;;
19854;SDS011;10088;47.946;2.532;2023-02-03T13:13:32;3.10;;;0.97;;
19854;SDS011;10088;47.946;2.532;2023-02-03T13:16:00;3.03;;;1.03;;
19854;SDS011;10088;47.946;2.532;2023-02-03T13:18:35;2.00;;;0.90;;
19854;SDS011;10088;47.946;2.532;2023-02-03T13:21:10;2.00;;;0.90;;
19854;SDS011;10088;47.946;2.532;2023-02-03T13:23:47;0.50;;;0.50;;
19854;SDS011;10088;47.946;2.532;2023-02-03T13:42:27;2.37;;;1.10;;
19854;SDS011;10088;47.946;2.532;2023-02-03T13:44:59;2.20;;;0.97;;
19854;SDS011;10088;47.946;2.532;2023-02-03T13:47:30;1.80;;;1.10;;
19854;SDS011;10088;47.946;2.532;2023-02-03T13:50:00;1.33;;;1.03;;
19854;SDS011;10088;47.946;2.532;2023-02-03T13:52:28;0.90;;;0.90;;
19854;SDS011;10088;47.946;2.532;2023-02-03T13:54:54;1.03;;;0.80;;
19854;SDS011;10088;47.946;2.532;2023-02-03T13:57:21;1.50;;;1.03;;
19854;SDS011;10088;47.946;2.532;2023-02-03T13:59:47;4.47;;;1.00;;
19854;SDS011;10088;47.946;2.532;2023-02-03T14:10:04;1.33;;;1.00;;
19854;SDS011;10088;47.946;2.532;2023-02-03T14:12:30;3.33;;;0.80;;
19854;SDS011;10088;47.946;2.532;2023-02-03T14:14:58;1.90;;;0.80;;
19854;SDS011;10088;47.946;2.532;2023-02-03T14:19:56;3.33;;;1.00;;
19854;SDS011;10088;47.946;2.532;2023-02-03T14:22:22;2.50;;;1.10;;
19854;SDS011;10088;47.946;2.532;2023-02-03T14:24:47;2.80;;;1.13;;
19854;SDS011;10088;47.946;2.532;2023-02-03T14:27:17;2.17;;;1.17;;
19854;SDS011;10088;47.946;2.532;2023-02-03T14:29:43;2.40;;;1.00;;
19854;SDS011;10088;47.946;2.532;2023-02-03T14:32:08;2.70;;;1.30;;
19854;SDS011;10088;47.946;2.532;2023-02-03T14:34:41;2.23;;;1.20;;
19854;SDS011;10088;47.946;2.532;2023-02-03T14:37:11;3.33;;;1.10;;
19854;SDS011;10088;47.946;2.532;2023-02-03T14:47:57;2.27;;;1.00;;
19854;SDS011;10088;47.946;2.532;2023-02-03T14:50:31;3.03;;;0.93;;
19854;SDS011;10088;47.946;2.532;2023-02-03T14:58:14;1.60;;;0.70;;
19854;SDS011;10088;47.946;2.532;2023-02-03T15:00:40;1.70;;;1.10;;
19854;SDS011;10088;47.946;2.532;2023-02-03T15:05:36;1.63;;;0.73;;
19854;SDS011;10088;47.946;2.532;2023-02-03T15:08:02;1.83;;;1.00;;
19854;SDS011;10088;47.946;2.532;2023-02-03T15:10:29;3.13;;;1.13;;
19854;SDS011;10088;47.946;2.532;2023-02-03T15:12:56;4.20;;;1.10;;
19854;SDS011;10088;47.946;2.532;2023-02-03T15:15:29;1.63;;;1.37;;
19854;SDS011;10088;47.946;2.532;2023-02-03T15:17:55;1.97;;;1.30;;
19854;SDS011;10088;47.946;2.532;2023-02-03T15:20:37;2.77;;;1.30;;
19854;SDS011;10088;47.946;2.532;2023-02-03T15:25:52;1.67;;;1.10;;
19854;SDS011;10088;47.946;2.532;2023-02-03T15:28:18;2.60;;;1.27;;
19854;SDS011;10088;47.946;2.532;2023-02-03T15:30:44;1.77;;;1.20;;
19854;SDS011;10088;47.946;2.532;2023-02-03T15:33:14;2.70;;;1.20;;
19854;SDS011;10088;47.946;2.532;2023-02-03T15:35:41;2.63;;;1.17;;
19854;SDS011;10088;47.946;2.532;2023-02-03T15:38:12;1.97;;;1.30;;
19854;SDS011;10088;47.946;2.532;2023-02-03T15:40:43;1.60;;;1.17;;
19854;SDS011;10088;47.946;2.532;2023-02-03T15:45:46;1.67;;;1.23;;
19854;SDS011;10088;47.946;2.532;2023-02-03T15:48:20;2.10;;;1.00;;
19854;SDS011;10088;47.946;2.532;2023-02-03T15:53:20;3.43;;;1.50;;
19854;SDS011;10088;47.946;2.532;2023-02-03T15:55:49;4.33;;;1.37;;
19854;SDS011;10088;47.946;2.532;2023-02-03T15:58:19;1.60;;;1.13;;
19854;SDS011;10088;47.946;2.532;2023-02-03T16:00:47;2.70;;;1.20;;
19854;SDS011;10088;47.946;2.532;2023-02-03T16:03:17;3.10;;;1.80;;
19854;SDS011;10088;47.946;2.532;2023-02-03T16:05:43;2.73;;;1.50;;
19854;SDS011;10088;47.946;2.532;2023-02-03T16:10:50;3.47;;;1.93;;
19854;SDS011;10088;47.946;2.532;2023-02-03T16:13:22;2.70;;;1.40;;
19854;SDS011;10088;47.946;2.532;2023-02-03T16:16:13;3.07;;;1.93;;
19854;SDS011;10088;47.946;2.532;2023-02-03T16:18:39;2.20;;;1.30;;
19854;SDS011;10088;47.946;2.532;2023-02-03T16:21:05;2.87;;;1.70;;
19854;SDS011;10088;47.946;2.532;2023-02-03T16:23:31;2.10;;;1.70;;
19854;SDS011;10088;47.946;2.532;2023-02-03T16:28:28;2.33;;;1.80;;
19854;SDS011;10088;47.946;2.532;2023-02-03T16:31:16;1.83;;;1.33;;
19854;SDS011;10088;47.946;2.532;2023-02-03T16:34:01;2.03;;;1.27;;
19854;SDS011;10088;47.946;2.532;2023-02-03T16:36:45;2.27;;;1.03;;
19854;SDS011;10088;47.946;2.532;2023-02-03T16:39:29;2.93;;;1.40;;
19854;SDS011;10088;47.946;2.532;2023-02-03T16:42:17;1.87;;;1.20;;
19854;SDS011;10088;47.946;2.532;2023-02-03T16:45:01;2.20;;;1.40;;
19854;SDS011;10088;47.946;2.532;2023-02-03T16:47:45;1.30;;;1.00;;
19854;SDS011;10088;47.946;2.532;2023-02-03T16:50:29;1.40;;;1.20;;
19854;SDS011;10088;47.946;2.532;2023-02-03T16:53:14;3.30;;;1.57;;
19854;SDS011;10088;47.946;2.532;2023-02-03T16:55:40;3.27;;;1.63;;
19854;SDS011;10088;47.946;2.532;2023-02-03T16:58:06;1.73;;;1.27;;
19854;SDS011;10088;47.946;2.532;2023-02-03T17:00:31;2.80;;;1.80;;
19854;SDS011;10088;47.946;2.532;2023-02-03T17:02:56;3.03;;;2.40;;
19854;SDS011;10088;47.946;2.532;2023-02-03T17:07:58;1.60;;;1.20;;
19854;SDS011;10088;47.946;2.532;2023-02-03T17:13:15;1.87;;;1.20;;
19854;SDS011;10088;47.946;2.532;2023-02-03T17:15:51;1.90;;;1.43;;
19854;SDS011;10088;47.946;2.532;2023-02-03T17:18:21;3.63;;;1.50;;
19854;SDS011;10088;47.946;2.532;2023-02-03T17:21:09;2.00;;;1.30;;
19854;SDS011;10088;47.946;2.532;2023-02-03T17:23:39;3.03;;;2.10;;
19854;SDS011;10088;47.946;2.532;2023-02-03T17:26:12;1.30;;;1.20;;
19854;SDS011;10088;47.946;2.532;2023-02-03T17:28:47;2.97;;;1.53;;
19854;SDS011;10088;47.946;2.532;2023-02-03T17:31:17;2.97;;;1.90;;
19854;SDS011;10088;47.946;2.532;2023-02-03T17:33:50;4.03;;;1.30;;
19854;SDS011;10088;47.946;2.532;2023-02-03T17:36:16;2.77;;;1.80;;
19854;SDS011;10088;47.946;2.532;2023-02-03T17:38:46;2.60;;;1.67;;
19854;SDS011;10088;47.946;2.532;2023-02-03T17:41:13;3.27;;;1.80;;
19854;SDS011;10088;47.946;2.532;2023-02-03T17:43:39;2.17;;;1.60;;
19854;SDS011;10088;47.946;2.532;2023-02-03T17:46:04;2.60;;;1.53;;
19854;SDS011;10088;47.946;2.532;2023-02-03T17:48:30;4.33;;;1.60;;
19854;SDS011;10088;47.946;2.532;2023-02-03T17:51:03;4.30;;;1.77;;